Time;durP1;ratioP1;P1;durP2;ratioP2;P2;SDS_P1;SDS_P2;PMS_P1;PMS_P2;Temp;Humidity;BMP_temperature;BMP_pressure;BME280_temperature;BME280_humidity;BME280_pressure;Samples;Min_cycle;Max_cycle;Signal;HPM_P1;HPM_P2
2022/12/18 00:00:34;;;;;;;;;;;;;;;;;;5070712;28;19958;-80
2022/12/18 00:03:00;;;;;;;;;;;;;;;;;;5051985;28;19912;-81
2022/12/18 00:05:26;;;;;;;;;;;;;;;;;;5052606;28;19908;-81
2022/12/18 00:07:52;;;;;;;;;;;;;;;;;;5070215;28;19912;-80
2022/12/18 00:10:18;;;;;;;;;;;;;;;;;;5051857;28;19948;-80
2022/12/18 00:12:44;;;;;;;;;;;;;;;;;;5070665;28;19904;-81
2022/12/18 00:15:10;;;;;;;;;;;;;;;;;;5051801;28;19971;-81
2022/12/18 00:17:36;;;;;;;;;;;;;;;;;;5070053;28;20039;-81
2022/12/18 00:20:02;;;;;;;;;;;;;;;;;;5051686;28;19947;-80
2022/12/18 00:22:28;;;;;;;;;;;;;;;;;;5051846;28;19909;-80
2022/12/18 00:24:54;;;;;;;;;;;;;;;;;;5070019;28;20377;-80
2022/12/18 00:27:20;;;;;;;;;;;;;;;;;;5070161;28;20558;-80
2022/12/18 00:29:46;;;;;;;;;;;;;;;;;;5051279;28;20545;-81
2022/12/18 00:32:11;;;;;;;;;;;;;;;;;;5052342;28;20627;-81
2022/12/18 00:34:37;;;;;;;;;;;;;;;;;;5070101;28;19966;-81
2022/12/18 00:37:03;;;;;;;;;;;;;;;;;;5070472;28;19950;-80
2022/12/18 00:39:29;;;;;;;;;;;;;;;;;;5054835;28;19985;-80
2022/12/18 00:44:40;;;;;;;;;;;;;;;;;;5030318;28;20473;-80
2022/12/18 00:47:06;;;;;;;;;;;;;;;;;;5029372;28;19905;-80
2022/12/18 00:49:32;;;;;;;;;;;;;;;;;;5041441;28;19971;-80
2022/12/18 00:51:58;;;;;;;;;;;;;;;;;;5067284;28;19947;-80
2022/12/18 00:54:24;;;;;;;;;;;;;;;;;;5071198;28;20231;-80
2022/12/18 00:56:50;;;;;;;;;;;;;;;;;;5071820;28;19970;-80
2022/12/18 00:59:16;;;;;;;;;;;;;;;;;;5071368;28;19904;-80
2022/12/18 01:01:42;;;;;;;;;;;;;;;;;;5053398;28;19915;-80
2022/12/18 01:04:08;;;;;;;;;;;;;;;;;;5070764;28;19993;-80
2022/12/18 01:06:34;;;;;;;;;;;;;;;;;;5071811;28;20377;-80
2022/12/18 01:09:00;;;;;;;;;;;;;;;;;;5075394;28;19909;-80
2022/12/18 01:11:26;;;;;;;;;;;;;;;;;;5074783;28;19905;-80
2022/12/18 01:13:52;;;;;;;;;;;;;;;;;;5056454;28;19911;-80
2022/12/18 01:16:18;;;;;;;;;;;;;;;;;;5075457;28;19957;-80
2022/12/18 01:18:44;;;;;;;;;;;;;;;;;;5075392;28;20354;-80
2022/12/18 01:21:10;;;;;;;;;;;;;;;;;;5055500;28;20003;-80
2022/12/18 01:23:36;;;;;;;;;;;;;;;;;;5056569;28;19916;-80
2022/12/18 01:26:01;;;;;;;;;;;;;;;;;;5073436;28;19904;-80
2022/12/18 01:28:27;;;;;;;;;;;;;;;;;;5074028;28;19942;-80
2022/12/18 01:30:53;;;;;;;;;;;;;;;;;;5073727;28;20358;-80
2022/12/18 01:33:19;;;;;;;;;;;;;;;;;;5073705;28;20675;-80
2022/12/18 01:35:45;;;;;;;;;;;;;;;;;;5055645;28;20393;-80
2022/12/18 01:38:11;;;;;;;;;;;;;;;;;;5055818;28;19909;-80
2022/12/18 01:40:37;;;;;;;;;;;;;;;;;;5020212;28;19913;-80
2022/12/18 01:43:03;;;;;;;;;;;;;;;;;;5033353;28;19948;-80
2022/12/18 01:45:29;;;;;;;;;;;;;;;;;;5062168;28;20033;-80
2022/12/18 01:47:55;;;;;;;;;;;;;;;;;;5055181;28;19917;-80
2022/12/18 01:50:21;;;;;;;;;;;;;;;;;;5054139;28;19948;-80
2022/12/18 01:52:47;;;;;;;;;;;;;;;;;;5051840;28;19915;-80
2022/12/18 01:55:13;;;;;;;;;;;;;;;;;;5052104;28;19909;-80
2022/12/18 01:57:39;;;;;;;;;;;;;;;;;;5053320;28;19949;-80
2022/12/18 02:00:05;;;;;;;;;;;;;;;;;;5053750;28;19915;-80
2022/12/18 02:02:31;;;;;;;;;;;;;;;;;;5054060;28;19999;-80
2022/12/18 02:04:57;;;;;;;;;;;;;;;;;;5053231;28;19911;-80
2022/12/18 02:07:23;;;;;;;;;;;;;;;;;;5054334;28;19911;-80
2022/12/18 02:09:49;;;;;;;;;;;;;;;;;;5053427;28;20375;-80
2022/12/18 02:12:15;;;;;;;;;;;;;;;;;;5052894;28;20358;-80
2022/12/18 02:14:40;;;;;;;;;;;;;;;;;;5054126;28;20536;-80
2022/12/18 02:17:07;;;;;;;;;;;;;;;;;;5054101;28;20090;-80
2022/12/18 02:19:32;;;;;;;;;;;;;;;;;;5054020;28;19919;-80
2022/12/18 02:21:58;;;;;;;;;;;;;;;;;;5054393;28;19905;-80
2022/12/18 02:24:24;;;;;;;;;;;;;;;;;;5054052;28;19989;-80
2022/12/18 02:26:50;;;;;;;;;;;;;;;;;;5054045;28;19905;-80
2022/12/18 02:29:16;;;;;;;;;;;;;;;;;;5053981;28;19916;-80
2022/12/18 02:31:42;;;;;;;;;;;;;;;;;;5053852;28;19999;-80
2022/12/18 02:34:08;;;;;;;;;;;;;;;;;;5052650;28;19919;-80
2022/12/18 02:36:34;;;;;;;;;;;;;;;;;;5052482;28;20363;-80
2022/12/18 02:39:00;;;;;;;;;;;;;;;;;;5049121;28;19968;-80
2022/12/18 02:41:26;;;;;;;;;;;;;;;;;;5033783;28;19960;-79
2022/12/18 02:43:52;;;;;;;;;;;;;;;;;;5034410;28;20332;-80
2022/12/18 02:46:18;;;;;;;;;;;;;;;;;;5058934;28;19966;-80
2022/12/18 02:48:44;;;;;;;;;;;;;;;;;;5067469;28;20067;-80
2022/12/18 02:51:10;;;;;;;;;;;;;;;;;;5035180;28;19904;-80
2022/12/18 02:53:36;;;;;;;;;;;;;;;;;;5053506;28;19912;-80
2022/12/18 02:56:02;;;;;;;;;;;;;;;;;;5035406;28;20003;-80
2022/12/18 02:58:28;;;;;;;;;;;;;;;;;;5035481;28;19901;-80
2022/12/18 03:00:54;;;;;;;;;;;;;;;;;;5053392;28;19996;-80
2022/12/18 03:03:20;;;;;;;;;;;;;;;;;;5035481;28;19916;-80
2022/12/18 03:05:46;;;;;;;;;;;;;;;;;;5035516;28;19987;-80
2022/12/18 03:08:12;;;;;;;;;;;;;;;;;;5053437;28;19929;-79
2022/12/18 03:10:38;;;;;;;;;;;;;;;;;;5035501;28;19948;-80
2022/12/18 03:13:04;;;;;;;;;;;;;;;;;;5053173;28;19912;-80
2022/12/18 03:15:30;;;;;;;;;;;;;;;;;;5053304;28;19923;-80
2022/12/18 03:17:55;;;;;;;;;;;;;;;;;;5053218;28;19905;-80
2022/12/18 03:20:21;;;;;;;;;;;;;;;;;;5035175;28;19912;-79
2022/12/18 03:22:47;;;;;;;;;;;;;;;;;;5035189;28;19913;-79
2022/12/18 03:25:13;;;;;;;;;;;;;;;;;;5034948;28;20034;-79
2022/12/18 03:27:39;;;;;;;;;;;;;;;;;;5053195;28;19912;-79
2022/12/18 03:30:08;;;;;;;;;;;;;;;;;;5034068;28;19963;-80
2022/12/18 03:32:34;;;;;;;;;;;;;;;;;;5035045;28;20538;-79
2022/12/18 03:35:00;;;;;;;;;;;;;;;;;;5034850;28;19916;-79
2022/12/18 03:37:26;;;;;;;;;;;;;;;;;;5034754;28;20717;-79
2022/12/18 03:39:52;;;;;;;;;;;;;;;;;;5034642;28;19904;-79
2022/12/18 03:42:18;;;;;;;;;;;;;;;;;;5052871;28;19908;-80
2022/12/18 03:44:44;;;;;;;;;;;;;;;;;;5052631;28;19909;-80
2022/12/18 03:47:10;;;;;;;;;;;;;;;;;;5052567;28;19912;-80
2022/12/18 03:49:36;;;;;;;;;;;;;;;;;;5050460;28;19956;-80
2022/12/18 03:52:02;;;;;;;;;;;;;;;;;;5029114;28;19959;-79
2022/12/18 03:54:28;;;;;;;;;;;;;;;;;;5043319;28;19911;-79
2022/12/18 03:56:54;;;;;;;;;;;;;;;;;;5042885;28;19913;-79
2022/12/18 03:59:20;;;;;;;;;;;;;;;;;;5042300;28;19924;-80
2022/12/18 04:01:46;;;;;;;;;;;;;;;;;;5037952;28;20004;-79
2022/12/18 04:04:12;;;;;;;;;;;;;;;;;;5025976;28;20302;-79
2022/12/18 04:06:38;;;;;;;;;;;;;;;;;;5047692;28;20007;-79
2022/12/18 04:09:04;;;;;;;;;;;;;;;;;;5035983;28;19952;-80
2022/12/18 04:11:30;;;;;;;;;;;;;;;;;;5032889;28;19911;-79
2022/12/18 04:13:57;;;;;;;;;;;;;;;;;;5052092;28;20274;-79
2022/12/18 04:16:23;;;;;;;;;;;;;;;;;;5051736;28;20318;-79
2022/12/18 04:18:49;;;;;;;;;;;;;;;;;;5033074;28;19909;-79
2022/12/18 04:21:14;;;;;;;;;;;;;;;;;;5034063;28;20320;-80
2022/12/18 04:23:40;;;;;;;;;;;;;;;;;;5051990;28;20327;-80
2022/12/18 04:26:06;;;;;;;;;;;;;;;;;;5034175;28;20279;-80
2022/12/18 04:28:32;;;;;;;;;;;;;;;;;;5051901;28;20217;-80
2022/12/18 04:30:58;;;;;;;;;;;;;;;;;;5034099;28;19932;-80
2022/12/18 04:33:24;;;;;;;;;;;;;;;;;;5051926;28;19909;-79
2022/12/18 04:35:50;;;;;;;;;;;;;;;;;;5051979;28;19905;-79
2022/12/18 04:38:16;;;;;;;;;;;;;;;;;;5051918;28;19916;-79
2022/12/18 04:40:42;;;;;;;;;;;;;;;;;;5053166;28;19928;-80
2022/12/18 04:43:08;;;;;;;;;;;;;;;;;;5054841;28;19904;-79
2022/12/18 04:45:34;;;;;;;;;;;;;;;;;;5054627;28;19948;-80
2022/12/18 04:48:00;;;;;;;;;;;;;;;;;;5055883;28;20248;-79
2022/12/18 04:50:26;;;;;;;;;;;;;;;;;;5070709;28;20325;-79
2022/12/18 04:52:52;;;;;;;;;;;;;;;;;;5075892;28;20254;-79
2022/12/18 04:55:18;;;;;;;;;;;;;;;;;;5075900;28;19995;-80
2022/12/18 04:57:44;;;;;;;;;;;;;;;;;;5057617;28;19981;-79
2022/12/18 05:00:10;;;;;;;;;;;;;;;;;;5075884;28;20006;-79
2022/12/18 05:02:35;;;;;;;;;;;;;;;;;;5051323;28;19931;-79
2022/12/18 05:05:01;;;;;;;;;;;;;;;;;;5055904;28;19904;-79
2022/12/18 05:07:27;;;;;;;;;;;;;;;;;;5055673;28;19959;-79
2022/12/18 05:09:53;;;;;;;;;;;;;;;;;;5055711;28;19948;-79
2022/12/18 05:12:19;;;;;;;;;;;;;;;;;;5055793;28;19908;-80
2022/12/18 05:14:45;;;;;;;;;;;;;;;;;;5037536;28;19911;-79
2022/12/18 05:17:11;;;;;;;;;;;;;;;;;;5037744;28;19908;-80
2022/12/18 05:19:37;;;;;;;;;;;;;;;;;;5055395;28;20368;-79
2022/12/18 05:22:03;;;;;;;;;;;;;;;;;;5055584;28;20387;-79
2022/12/18 05:24:29;;;;;;;;;;;;;;;;;;5037539;28;19905;-79
2022/12/18 05:26:55;;;;;;;;;;;;;;;;;;5037351;28;19904;-79
2022/12/18 05:29:21;;;;;;;;;;;;;;;;;;5055256;28;19919;-79
2022/12/18 05:31:47;;;;;;;;;;;;;;;;;;5055303;28;20000;-79
2022/12/18 05:34:13;;;;;;;;;;;;;;;;;;5055156;28;19909;-79
2022/12/18 05:36:39;;;;;;;;;;;;;;;;;;5054895;28;19974;-80
2022/12/18 05:39:05;;;;;;;;;;;;;;;;;;5036972;28;19905;-79
2022/12/18 05:41:31;;;;;;;;;;;;;;;;;;5054722;28;20310;-79
2022/12/18 05:43:57;;;;;;;;;;;;;;;;;;5055020;28;19969;-79
2022/12/18 05:46:24;;;;;;;;;;;;;;;;;;5054846;28;20312;-79
2022/12/18 05:48:50;;;;;;;;;;;;;;;;;;5054951;28;19905;-79
2022/12/18 05:51:16;;;;;;;;;;;;;;;;;;5054871;28;19944;-80
2022/12/18 05:53:42;;;;;;;;;;;;;;;;;;5054326;28;19912;-79
2022/12/18 05:56:08;;;;;;;;;;;;;;;;;;5072597;28;20014;-80
2022/12/18 05:58:34;;;;;;;;;;;;;;;;;;5074743;28;19908;-79
2022/12/18 06:01:00;;;;;;;;;;;;;;;;;;5075109;28;19909;-80
2022/12/18 06:03:26;;;;;;;;;;;;;;;;;;5060991;28;19908;-79
2022/12/18 06:05:52;;;;;;;;;;;;;;;;;;5054512;28;20121;-79
2022/12/18 06:08:18;;;;;;;;;;;;;;;;;;5036623;28;19905;-80
2022/12/18 06:10:44;;;;;;;;;;;;;;;;;;5054410;28;19959;-79
2022/12/18 06:13:10;;;;;;;;;;;;;;;;;;5054376;28;19904;-79
2022/12/18 06:15:36;;;;;;;;;;;;;;;;;;5054476;28;19911;-79
2022/12/18 06:18:01;;;;;;;;;;;;;;;;;;5036417;28;19908;-79
2022/12/18 06:20:27;;;;;;;;;;;;;;;;;;5054383;28;19904;-79
2022/12/18 06:22:53;;;;;;;;;;;;;;;;;;5054381;28;19912;-80
2022/12/18 06:25:19;;;;;;;;;;;;;;;;;;5054364;28;19909;-79
2022/12/18 06:27:45;;;;;;;;;;;;;;;;;;5054339;28;19904;-79
2022/12/18 06:30:12;;;;;;;;;;;;;;;;;;5053954;28;19963;-79
2022/12/18 06:32:38;;;;;;;;;;;;;;;;;;5054236;28;19908;-79
2022/12/18 06:35:04;;;;;;;;;;;;;;;;;;5054061;28;20361;-79
2022/12/18 06:37:30;;;;;;;;;;;;;;;;;;5054114;28;20335;-79
2022/12/18 06:39:56;;;;;;;;;;;;;;;;;;5032453;28;19905;-79
2022/12/18 06:42:22;;;;;;;;;;;;;;;;;;5034147;28;19928;-79
2022/12/18 06:44:48;;;;;;;;;;;;;;;;;;5044721;28;19928;-79
2022/12/18 06:47:14;;;;;;;;;;;;;;;;;;5052473;28;19904;-79
2022/12/18 06:49:40;;;;;;;;;;;;;;;;;;5053819;28;19913;-79
2022/12/18 06:52:06;;;;;;;;;;;;;;;;;;5053710;28;19905;-79
2022/12/18 06:54:32;;;;;;;;;;;;;;;;;;5053776;28;19911;-79
2022/12/18 06:56:58;;;;;;;;;;;;;;;;;;5053540;28;19905;-79
2022/12/18 06:59:24;;;;;;;;;;;;;;;;;;5052120;28;19908;-79
2022/12/18 07:01:50;;;;;;;;;;;;;;;;;;5053713;28;19944;-79
2022/12/18 07:04:16;;;;;;;;;;;;;;;;;;5052675;28;19963;-79
2022/12/18 07:06:42;;;;;;;;;;;;;;;;;;5053530;28;19992;-79
2022/12/18 07:09:08;;;;;;;;;;;;;;;;;;5053132;28;19908;-79
2022/12/18 07:11:34;;;;;;;;;;;;;;;;;;5053371;28;19936;-79
2022/12/18 07:14:00;;;;;;;;;;;;;;;;;;5053179;28;19927;-79
2022/12/18 07:16:26;;;;;;;;;;;;;;;;;;5051909;28;20371;-80
2022/12/18 07:18:52;;;;;;;;;;;;;;;;;;5051926;28;19984;-80
2022/12/18 07:21:18;;;;;;;;;;;;;;;;;;5053193;28;19958;-79
2022/12/18 07:23:46;;;;;;;;;;;;;;;;;;5051566;28;19920;-80
2022/12/18 07:26:12;;;;;;;;;;;;;;;;;;5052759;28;20372;-80
2022/12/18 07:28:38;;;;;;;;;;;;;;;;;;5051723;28;19999;-79
2022/12/18 07:31:04;;;;;;;;;;;;;;;;;;5053048;28;20270;-80
2022/12/18 07:33:29;;;;;;;;;;;;;;;;;;5053128;28;19915;-79
2022/12/18 07:35:55;;;;;;;;;;;;;;;;;;5052942;28;20358;-80
2022/12/18 07:38:21;;;;;;;;;;;;;;;;;;5051099;28;19959;-80
2022/12/18 07:40:47;;;;;;;;;;;;;;;;;;5032998;28;20287;-79
2022/12/18 07:43:13;;;;;;;;;;;;;;;;;;5031659;28;19996;-80
2022/12/18 07:45:39;;;;;;;;;;;;;;;;;;5068473;28;19932;-79
2022/12/18 07:48:05;;;;;;;;;;;;;;;;;;5054813;28;19911;-80
2022/12/18 07:50:31;;;;;;;;;;;;;;;;;;5072768;28;20009;-80
2022/12/18 07:52:57;;;;;;;;;;;;;;;;;;5071185;28;20271;-80
2022/12/18 07:55:23;;;;;;;;;;;;;;;;;;5072658;28;19904;-80
2022/12/18 07:57:49;;;;;;;;;;;;;;;;;;5071047;28;20285;-80
2022/12/18 08:00:16;;;;;;;;;;;;;;;;;;5071071;28;20278;-80
2022/12/18 08:02:42;;;;;;;;;;;;;;;;;;5072370;28;20267;-80
2022/12/18 08:05:07;;;;;;;;;;;;;;;;;;5072457;28;19908;-80
2022/12/18 08:07:33;;;;;;;;;;;;;;;;;;5071365;28;20343;-80
2022/12/18 08:09:59;;;;;;;;;;;;;;;;;;5072473;28;20305;-80
2022/12/18 08:12:25;;;;;;;;;;;;;;;;;;5072469;28;19904;-80
2022/12/18 08:14:51;;;;;;;;;;;;;;;;;;5071864;28;20392;-80
2022/12/18 08:17:17;;;;;;;;;;;;;;;;;;5072205;28;20343;-80
2022/12/18 08:19:43;;;;;;;;;;;;;;;;;;5072204;28;20350;-80
2022/12/18 08:22:09;;;;;;;;;;;;;;;;;;5072534;28;19936;-80
2022/12/18 08:24:35;;;;;;;;;;;;;;;;;;5072448;28;19931;-80
2022/12/18 08:27:01;;;;;;;;;;;;;;;;;;5072301;28;19905;-80
2022/12/18 08:29:27;;;;;;;;;;;;;;;;;;5071952;28;19963;-80
2022/12/18 08:31:53;;;;;;;;;;;;;;;;;;5072152;28;20416;-80
2022/12/18 08:34:19;;;;;;;;;;;;;;;;;;5072202;28;20259;-80
2022/12/18 08:36:45;;;;;;;;;;;;;;;;;;5070621;28;19960;-80
2022/12/18 08:39:11;;;;;;;;;;;;;;;;;;5063156;28;19936;-80
2022/12/18 08:41:37;;;;;;;;;;;;;;;;;;5050369;28;20271;-80
2022/12/18 08:46:47;;;;;;;;;;;;;;;;;;5032287;28;20008;-80
2022/12/18 08:49:13;;;;;;;;;;;;;;;;;;5048543;28;20003;-80
2022/12/18 08:51:39;;;;;;;;;;;;;;;;;;5051964;28;19905;-80
2022/12/18 08:54:05;;;;;;;;;;;;;;;;;;5050386;28;19936;-80
2022/12/18 08:56:31;;;;;;;;;;;;;;;;;;5034098;28;19909;-80
2022/12/18 08:58:57;;;;;;;;;;;;;;;;;;5037977;28;19905;-80
2022/12/18 09:01:23;;;;;;;;;;;;;;;;;;5052412;28;19915;-80
2022/12/18 09:03:49;;;;;;;;;;;;;;;;;;5033804;28;20375;-80
2022/12/18 09:06:15;;;;;;;;;;;;;;;;;;5045747;28;20228;-80
2022/12/18 09:08:41;;;;;;;;;;;;;;;;;;5046914;28;19916;-80
2022/12/18 09:11:07;;;;;;;;;;;;;;;;;;5051741;28;19981;-81
2022/12/18 09:13:33;;;;;;;;;;;;;;;;;;5020308;28;19924;-81
2022/12/18 09:15:59;;;;;;;;;;;;;;;;;;5033600;28;20275;-81
2022/12/18 09:18:25;;;;;;;;;;;;;;;;;;5033904;28;19908;-81
2022/12/18 09:20:52;;;;;;;;;;;;;;;;;;5033866;28;19905;-81
2022/12/18 09:23:18;;;;;;;;;;;;;;;;;;5030851;28;19936;-81
2022/12/18 09:25:44;;;;;;;;;;;;;;;;;;5033910;28;20351;-81
2022/12/18 09:28:10;;;;;;;;;;;;;;;;;;5053663;28;19904;-81
2022/12/18 09:30:36;;;;;;;;;;;;;;;;;;5037452;28;19913;-81
2022/12/18 09:33:02;;;;;;;;;;;;;;;;;;5055259;28;20102;-81
2022/12/18 09:35:28;;;;;;;;;;;;;;;;;;5055264;28;19904;-82
2022/12/18 09:37:54;;;;;;;;;;;;;;;;;;5055000;28;19905;-81
2022/12/18 09:40:20;;;;;;;;;;;;;;;;;;5033507;28;19920;-81
2022/12/18 09:42:46;;;;;;;;;;;;;;;;;;5034915;28;20220;-81
2022/12/18 09:45:12;;;;;;;;;;;;;;;;;;5049662;28;20318;-82
2022/12/18 09:47:38;;;;;;;;;;;;;;;;;;5073211;28;20254;-81
2022/12/18 09:50:04;;;;;;;;;;;;;;;;;;5056430;28;20349;-81
2022/12/18 09:52:29;;;;;;;;;;;;;;;;;;5074928;28;19908;-82
2022/12/18 09:54:55;;;;;;;;;;;;;;;;;;5074635;28;19904;-82
2022/12/18 09:57:21;;;;;;;;;;;;;;;;;;5073570;28;19904;-82
2022/12/18 09:59:47;;;;;;;;;;;;;;;;;;5074566;28;19908;-81
2022/12/18 10:02:13;;;;;;;;;;;;;;;;;;5074664;28;19908;-82
2022/12/18 10:04:39;;;;;;;;;;;;;;;;;;5073149;28;19926;-82
2022/12/18 10:07:05;;;;;;;;;;;;;;;;;;5074403;28;20003;-82
2022/12/18 10:09:31;;;;;;;;;;;;;;;;;;5053449;28;19943;-82
2022/12/18 10:11:57;;;;;;;;;;;;;;;;;;5054462;28;19904;-82
2022/12/18 10:14:23;;;;;;;;;;;;;;;;;;5036482;28;20236;-82
2022/12/18 10:16:49;;;;;;;;;;;;;;;;;;5036406;28;19958;-82
2022/12/18 10:19:15;;;;;;;;;;;;;;;;;;5054382;28;19907;-82
2022/12/18 10:21:41;;;;;;;;;;;;;;;;;;5054007;28;19904;-82
2022/12/18 10:24:07;;;;;;;;;;;;;;;;;;5054321;28;20015;-82
2022/12/18 10:26:33;;;;;;;;;;;;;;;;;;5054021;28;20219;-82
2022/12/18 10:28:59;;;;;;;;;;;;;;;;;;5053910;28;20313;-82
2022/12/18 10:31:25;;;;;;;;;;;;;;;;;;5054062;28;19936;-82
2022/12/18 10:33:51;;;;;;;;;;;;;;;;;;5053895;28;19900;-82
2022/12/18 10:36:17;;;;;;;;;;;;;;;;;;5035972;28;20362;-83
2022/12/18 10:38:43;;;;;;;;;;;;;;;;;;5032368;28;19924;-83
2022/12/18 10:41:11;;;;;;;;;;;;;;;;;;5044451;28;20006;-82
2022/12/18 10:43:37;;;;;;;;;;;;;;;;;;5035688;28;19905;-82
2022/12/18 10:46:03;;;;;;;;;;;;;;;;;;5044322;28;19936;-82
2022/12/18 10:48:29;;;;;;;;;;;;;;;;;;5040073;28;20347;-82
2022/12/18 10:50:55;;;;;;;;;;;;;;;;;;5053313;28;19963;-82
2022/12/18 10:53:21;;;;;;;;;;;;;;;;;;5045949;28;19912;-82
2022/12/18 10:55:47;;;;;;;;;;;;;;;;;;5047069;28;20003;-82
2022/12/18 10:58:13;;;;;;;;;;;;;;;;;;5046575;28;19912;-82
2022/12/18 11:00:39;;;;;;;;;;;;;;;;;;5022584;28;19904;-82
2022/12/18 11:03:05;;;;;;;;;;;;;;;;;;5029712;28;19913;-83
2022/12/18 11:05:31;;;;;;;;;;;;;;;;;;5024104;28;19920;-83
2022/12/18 11:07:57;;;;;;;;;;;;;;;;;;5032402;28;19905;-82
2022/12/18 11:10:23;;;;;;;;;;;;;;;;;;5053515;28;19955;-83
2022/12/18 11:12:49;;;;;;;;;;;;;;;;;;5035108;28;19943;-83
2022/12/18 11:15:15;;;;;;;;;;;;;;;;;;5030092;28;19963;-82
2022/12/18 11:17:41;;;;;;;;;;;;;;;;;;5015457;28;19912;-82
2022/12/18 11:20:07;;;;;;;;;;;;;;;;;;5032938;28;19905;-82
2022/12/18 11:22:32;;;;;;;;;;;;;;;;;;5028250;28;19995;-82
2022/12/18 11:24:58;;;;;;;;;;;;;;;;;;5034196;28;19912;-83
2022/12/18 11:27:24;;;;;;;;;;;;;;;;;;5034831;28;19912;-83
2022/12/18 11:29:51;;;;;;;;;;;;;;;;;;5034575;28;19951;-83
2022/12/18 11:32:17;;;;;;;;;;;;;;;;;;5023741;28;19913;-83
2022/12/18 11:34:43;;;;;;;;;;;;;;;;;;5015158;28;19911;-83
2022/12/18 11:37:09;;;;;;;;;;;;;;;;;;5015096;28;19905;-83
2022/12/18 11:39:35;;;;;;;;;;;;;;;;;;5044616;28;19959;-83
2022/12/18 11:42:11;;;;;;;;;;;;;;;;;;5051245;28;19912;-84
2022/12/18 11:44:37;;;;;;;;;;;;;;;;;;5051128;28;19912;-83
2022/12/18 11:47:03;;;;;;;;;;;;;;;;;;5038250;28;19920;-83
2022/12/18 11:49:29;;;;;;;;;;;;;;;;;;5036579;28;20359;-83
2022/12/18 11:51:55;;;;;;;;;;;;;;;;;;5041067;28;19996;-83
2022/12/18 11:54:21;;;;;;;;;;;;;;;;;;5037469;28;19905;-83
2022/12/18 11:56:47;;;;;;;;;;;;;;;;;;5053106;28;20074;-83
2022/12/18 11:59:13;;;;;;;;;;;;;;;;;;5071259;28;19912;-83
2022/12/18 12:01:39;;;;;;;;;;;;;;;;;;5052763;28;20252;-84
2022/12/18 12:04:04;;;;;;;;;;;;;;;;;;5033038;28;20433;-83
2022/12/18 12:06:30;;;;;;;;;;;;;;;;;;5037483;28;19915;-83
2022/12/18 12:08:56;;;;;;;;;;;;;;;;;;5070798;28;19955;-83
2022/12/18 12:11:22;;;;;;;;;;;;;;;;;;5053156;28;19909;-83
2022/12/18 12:13:48;;;;;;;;;;;;;;;;;;5052809;28;19962;-84
2022/12/18 12:16:14;;;;;;;;;;;;;;;;;;5052768;28;19909;-84
2022/12/18 12:18:40;;;;;;;;;;;;;;;;;;5057669;28;19982;-83
2022/12/18 12:21:06;;;;;;;;;;;;;;;;;;5032187;28;19912;-83
2022/12/18 12:23:33;;;;;;;;;;;;;;;;;;5029185;28;20591;-83
2022/12/18 12:26:00;;;;;;;;;;;;;;;;;;5014906;28;19905;-83
2022/12/18 12:28:25;;;;;;;;;;;;;;;;;;5011424;28;19941;-83
2022/12/18 12:30:51;;;;;;;;;;;;;;;;;;5038692;28;19955;-82
2022/12/18 12:33:17;;;;;;;;;;;;;;;;;;5051072;28;19908;-82
2022/12/18 12:35:43;;;;;;;;;;;;;;;;;;5032593;28;19928;-83
2022/12/18 12:38:09;;;;;;;;;;;;;;;;;;5050098;28;20263;-83
2022/12/18 12:40:35;;;;;;;;;;;;;;;;;;5029563;28;19987;-82
2022/12/18 12:43:13;;;;;;;;;;;;;;;;;;5039070;28;19944;-82
2022/12/18 12:45:39;;;;;;;;;;;;;;;;;;5042746;28;19909;-82
2022/12/18 12:48:05;;;;;;;;;;;;;;;;;;5037548;28;20314;-82
2022/12/18 12:50:31;;;;;;;;;;;;;;;;;;5034777;28;20006;-82
